Time;durP1;ratioP1;P1;durP2;ratioP2;P2;SDS_P1;SDS_P2;PMS_P1;PMS_P2;Temp;Humidity;BMP_temperature;BMP_pressure;BME280_temperature;BME280_humidity;BME280_pressure;Samples;Min_cycle;Max_cycle;Signal;HPM_P1;HPM_P2
2022/07/06 00:01:24;;;;;;;4.77;3.80;;;17.70;79.50;;;;;;4877842;29;20200;-62
2022/07/06 00:03:49;;;;;;;6.40;4.50;;;17.60;79.80;;;;;;4867471;29;20204;-62
2022/07/06 00:06:16;;;;;;;7.33;4.40;;;17.60;80.30;;;;;;4883205;29;20226;-62
2022/07/06 00:08:43;;;;;;;4.50;4.10;;;17.60;80.80;;;;;;4844130;29;20200;-62
2022/07/06 00:11:10;;;;;;;6.37;4.30;;;17.60;80.00;;;;;;4886165;29;20195;-62
2022/07/06 00:13:36;;;;;;;4.30;3.83;;;17.60;79.90;;;;;;4882927;29;20196;-62
2022/07/06 00:16:01;;;;;;;4.13;3.70;;;17.60;80.10;;;;;;4868021;29;20196;-62
2022/07/06 00:18:27;;;;;;;4.40;4.00;;;17.50;80.30;;;;;;4849211;29;20194;-62
2022/07/06 00:20:53;;;;;;;7.27;4.17;;;17.50;80.60;;;;;;4851608;29;20192;-62
2022/07/06 00:23:19;;;;;;;7.63;4.50;;;17.40;80.40;;;;;;4867796;29;20200;-62
2022/07/06 00:25:44;;;;;;;5.43;4.47;;;17.30;80.70;;;;;;4881797;29;20192;-62
2022/07/06 00:28:10;;;;;;;4.53;4.13;;;17.30;80.30;;;;;;4878564;29;20244;-62
2022/07/06 00:30:36;;;;;;;4.17;3.87;;;17.30;80.60;;;;;;4852965;29;20288;-62
2022/07/06 00:33:02;;;;;;;5.33;4.40;;;17.30;81.10;;;;;;4897101;29;20192;-62
2022/07/06 00:35:28;;;;;;;6.87;4.27;;;17.30;81.00;;;;;;4867634;29;20244;-62
2022/07/06 00:37:53;;;;;;;4.63;4.23;;;17.30;81.00;;;;;;4891777;29;20242;-62
2022/07/06 00:40:19;;;;;;;6.27;4.67;;;17.30;81.00;;;;;;4861518;29;20233;-62
2022/07/06 00:42:47;;;;;;;8.37;5.07;;;17.20;81.20;;;;;;4863137;29;20207;-62
2022/07/06 00:45:15;;;;;;;5.37;4.87;;;17.30;81.10;;;;;;4883040;29;20203;-62
2022/07/06 00:47:41;;;;;;;7.40;5.20;;;17.20;81.40;;;;;;4867065;29;20218;-62
2022/07/06 00:50:15;;;;;;;6.20;4.87;;;17.20;81.20;;;;;;4866704;29;20225;-62
2022/07/06 00:52:41;;;;;;;6.10;4.40;;;17.10;81.20;;;;;;4868204;29;20203;-62
2022/07/06 00:55:08;;;;;;;8.00;4.57;;;17.20;81.00;;;;;;4863875;29;20239;-62
2022/07/06 00:57:35;;;;;;;8.50;4.33;;;17.10;81.40;;;;;;4869911;29;20223;-62
2022/07/06 01:00:04;;;;;;;4.73;4.33;;;17.10;81.90;;;;;;4899314;29;20194;-62
2022/07/06 01:02:32;;;;;;;8.47;4.70;;;17.10;81.60;;;;;;4867039;29;20260;-62
2022/07/06 01:04:57;;;;;;;8.00;4.60;;;17.00;81.60;;;;;;4882248;29;20287;-62
2022/07/06 01:07:23;;;;;;;4.57;4.17;;;17.10;82.10;;;;;;4881787;29;20298;-62
2022/07/06 01:09:49;;;;;;;5.70;4.37;;;17.10;81.30;;;;;;4868423;29;20210;-62
2022/07/06 01:12:15;;;;;;;8.37;4.90;;;17.10;81.20;;;;;;4863317;29;20193;-62
2022/07/06 01:14:41;;;;;;;8.50;5.53;;;17.00;80.80;;;;;;4848783;29;20216;-62
2022/07/06 01:17:08;;;;;;;5.87;5.07;;;17.00;82.00;;;;;;4880125;29;20196;-62
2022/07/06 01:19:33;;;;;;;6.33;5.03;;;17.00;81.80;;;;;;4867102;29;20283;-62
2022/07/06 01:21:59;;;;;;;5.77;4.90;;;17.00;81.90;;;;;;4881735;29;20227;-62
2022/07/06 01:24:25;;;;;;;5.30;4.80;;;16.90;82.40;;;;;;4859808;29;20192;-62
2022/07/06 01:26:51;;;;;;;5.10;4.70;;;16.90;81.50;;;;;;4863214;29;20263;-63
2022/07/06 01:29:17;;;;;;;7.10;4.00;;;16.90;81.60;;;;;;4851664;29;20211;-62
2022/07/06 01:31:48;;;;;;;5.60;4.57;;;16.90;81.50;;;;;;4875046;29;20200;-62
2022/07/06 01:34:15;;;;;;;5.13;4.60;;;16.80;81.60;;;;;;4897210;29;20242;-62
2022/07/06 01:36:41;;;;;;;5.57;4.80;;;16.80;81.30;;;;;;4895235;29;20200;-62
2022/07/06 01:39:08;;;;;;;4.97;4.57;;;16.80;81.60;;;;;;4866109;29;20253;-62
2022/07/06 01:41:34;;;;;;;4.73;4.37;;;16.80;81.70;;;;;;4879008;29;20188;-62
2022/07/06 01:44:00;;;;;;;7.10;5.03;;;16.90;82.10;;;;;;4865790;29;20207;-62
2022/07/06 01:46:25;;;;;;;4.80;4.40;;;16.80;82.20;;;;;;4866491;29;20200;-61
2022/07/06 01:48:51;;;;;;;5.73;5.00;;;16.80;82.00;;;;;;4880012;29;20224;-62
2022/07/06 01:51:17;;;;;;;4.90;4.50;;;16.70;82.70;;;;;;4875354;29;20203;-62
2022/07/06 01:53:43;;;;;;;10.30;4.40;;;16.80;83.00;;;;;;4866436;29;20208;-62
2022/07/06 01:56:09;;;;;;;5.37;4.87;;;16.80;82.40;;;;;;4868231;29;20207;-62
2022/07/06 01:58:35;;;;;;;6.90;5.00;;;16.80;83.10;;;;;;4888739;29;20275;-62
2022/07/06 02:01:06;;;;;;;6.33;5.30;;;16.80;82.00;;;;;;4892197;29;20283;-62
2022/07/06 02:03:31;;;;;;;5.60;5.10;;;16.70;82.60;;;;;;4866638;29;20228;-62
2022/07/06 02:05:57;;;;;;;6.73;4.47;;;16.80;82.00;;;;;;4868435;29;20199;-62
2022/07/06 02:08:22;;;;;;;8.03;4.80;;;16.80;82.10;;;;;;4899826;29;20199;-62
2022/07/06 02:10:48;;;;;;;4.93;4.43;;;16.70;82.10;;;;;;4866502;29;20192;-62
2022/07/06 02:13:14;;;;;;;5.20;4.30;;;16.70;82.30;;;;;;4881995;29;20195;-62
2022/07/06 02:15:40;;;;;;;6.60;5.17;;;16.80;82.40;;;;;;4881401;29;20251;-62
2022/07/06 02:18:05;;;;;;;6.00;4.80;;;16.80;82.10;;;;;;4874060;29;20197;-62
2022/07/06 02:20:31;;;;;;;5.67;4.67;;;16.70;82.10;;;;;;4904379;29;20196;-62
2022/07/06 02:22:56;;;;;;;10.83;5.87;;;16.60;82.70;;;;;;4861047;29;20199;-62
2022/07/06 02:25:22;;;;;;;5.67;5.17;;;16.60;82.20;;;;;;4869421;29;20192;-62
2022/07/06 02:27:48;;;;;;;6.97;4.90;;;16.70;83.10;;;;;;4868099;29;20248;-62
2022/07/06 02:30:14;;;;;;;5.60;5.00;;;16.80;82.50;;;;;;4853843;29;20187;-62
2022/07/06 02:32:39;;;;;;;6.57;4.97;;;16.70;82.30;;;;;;4871616;29;20294;-62
2022/07/06 02:35:05;;;;;;;8.43;5.00;;;16.60;82.50;;;;;;4884199;29;20251;-62
2022/07/06 02:37:31;;;;;;;5.33;4.83;;;16.60;82.40;;;;;;4873009;29;20224;-62
2022/07/06 02:39:57;;;;;;;5.33;4.93;;;16.50;82.70;;;;;;4868045;29;20222;-62
2022/07/06 02:42:22;;;;;;;5.37;4.90;;;16.50;82.70;;;;;;4886935;29;20192;-62
2022/07/06 02:44:48;;;;;;;5.27;4.77;;;16.50;82.80;;;;;;4884125;29;20202;-62
2022/07/06 02:47:14;;;;;;;5.40;4.90;;;16.50;82.90;;;;;;4850827;29;20236;-62
2022/07/06 02:49:39;;;;;;;5.97;5.03;;;16.40;83.10;;;;;;4866734;29;20224;-62
2022/07/06 02:52:05;;;;;;;5.20;4.80;;;16.40;83.40;;;;;;4867964;29;20263;-62
2022/07/06 02:54:31;;;;;;;5.50;5.00;;;16.50;83.50;;;;;;4850003;29;20237;-62
2022/07/06 02:56:56;;;;;;;5.67;5.17;;;16.40;82.80;;;;;;4845743;29;20191;-62
2022/07/06 02:59:22;;;;;;;6.20;4.50;;;16.40;83.10;;;;;;4847583;29;20196;-63
2022/07/06 03:01:48;;;;;;;7.10;5.63;;;16.40;82.90;;;;;;4859176;29;20299;-63
2022/07/06 03:04:13;;;;;;;5.70;5.20;;;16.30;83.30;;;;;;4883065;29;20203;-62
2022/07/06 03:06:39;;;;;;;6.07;5.17;;;16.40;82.80;;;;;;4848200;29;20200;-62
2022/07/06 03:09:05;;;;;;;5.93;4.87;;;16.40;83.40;;;;;;4843411;29;20205;-62
2022/07/06 03:11:30;;;;;;;5.70;4.97;;;16.30;83.00;;;;;;4884142;29;20329;-63
2022/07/06 03:13:56;;;;;;;7.03;5.63;;;16.30;82.90;;;;;;4869636;29;20226;-63
2022/07/06 03:16:21;;;;;;;6.97;5.33;;;16.30;82.90;;;;;;4872263;29;20191;-62
2022/07/06 03:18:47;;;;;;;6.57;5.43;;;16.30;83.10;;;;;;4880213;29;20202;-63
2022/07/06 03:21:13;;;;;;;6.17;5.23;;;16.30;83.20;;;;;;4853170;29;20327;-62
2022/07/06 03:23:38;;;;;;;11.97;5.20;;;16.30;83.20;;;;;;4876348;29;20303;-63
2022/07/06 03:26:04;;;;;;;5.87;4.77;;;16.30;82.70;;;;;;4871280;29;20214;-63
2022/07/06 03:28:30;;;;;;;8.20;5.73;;;16.20;83.00;;;;;;4883674;29;20322;-62
2022/07/06 03:30:55;;;;;;;7.33;5.43;;;16.20;83.50;;;;;;4849515;29;20212;-62
2022/07/06 03:33:21;;;;;;;6.97;5.40;;;16.20;83.60;;;;;;4883532;29;20207;-62
2022/07/06 03:35:46;;;;;;;5.33;4.93;;;16.20;83.80;;;;;;4845903;29;20233;-62
2022/07/06 03:38:12;;;;;;;6.23;5.63;;;16.20;84.20;;;;;;4859652;29;20195;-62
2022/07/06 03:40:38;;;;;;;5.97;5.43;;;16.20;83.90;;;;;;4868438;29;20194;-62
2022/07/06 03:43:04;;;;;;;9.10;5.30;;;16.20;84.30;;;;;;4867402;29;20192;-63
2022/07/06 03:45:30;;;;;;;4.87;4.47;;;16.20;84.00;;;;;;4868124;29;20208;-61
2022/07/06 03:47:56;;;;;;;5.13;4.73;;;16.30;83.80;;;;;;4852883;29;20255;-61
2022/07/06 03:50:22;;;;;;;6.83;5.90;;;16.30;83.80;;;;;;4883931;29;20203;-62
2022/07/06 03:52:47;;;;;;;6.27;4.97;;;16.30;83.80;;;;;;4867291;29;20244;-61
2022/07/06 03:55:13;;;;;;;6.27;5.23;;;16.30;84.20;;;;;;4848413;29;20231;-61
2022/07/06 03:57:40;;;;;;;7.47;5.50;;;16.30;84.10;;;;;;4855700;29;20212;-61
2022/07/06 04:00:08;;;;;;;7.40;5.57;;;16.30;84.30;;;;;;4885327;29;20283;-61
2022/07/06 04:02:33;;;;;;;5.67;5.17;;;16.30;84.40;;;;;;4894392;29;20191;-61
2022/07/06 04:04:59;;;;;;;6.10;5.60;;;16.30;84.30;;;;;;4879639;29;20192;-62
2022/07/06 04:07:25;;;;;;;6.30;5.60;;;16.40;84.30;;;;;;4847640;29;20206;-61
2022/07/06 04:09:51;;;;;;;8.73;5.13;;;16.50;84.50;;;;;;4849444;29;20210;-61
2022/07/06 04:12:16;;;;;;;6.03;5.17;;;16.50;83.80;;;;;;4869570;29;20278;-62
2022/07/06 04:14:42;;;;;;;5.53;5.03;;;16.60;84.00;;;;;;4863373;29;20224;-61
2022/07/06 04:19:52;;;;;;;5.97;5.37;;;16.70;84.00;;;;;;4872251;29;20219;-60
2022/07/06 04:22:17;;;;;;;4.83;4.43;;;16.70;83.80;;;;;;4867499;29;20188;-61
2022/07/06 04:24:43;;;;;;;5.90;5.30;;;16.80;83.80;;;;;;4850568;29;20248;-61
2022/07/06 04:27:09;;;;;;;8.60;4.93;;;16.80;83.70;;;;;;4867244;29;20240;-61
2022/07/06 04:29:35;;;;;;;7.87;5.77;;;16.80;83.60;;;;;;4867463;29;20235;-59
2022/07/06 04:32:01;;;;;;;5.57;5.07;;;16.80;83.60;;;;;;4864418;29;20268;-59
2022/07/06 04:34:26;;;;;;;5.07;4.57;;;16.80;83.50;;;;;;4840699;29;20209;-61
2022/07/06 04:36:52;;;;;;;5.27;4.77;;;16.80;83.50;;;;;;4844917;29;20245;-61
2022/07/06 04:39:18;;;;;;;6.23;4.93;;;16.80;83.50;;;;;;4839776;29;20211;-61
2022/07/06 04:41:43;;;;;;;6.43;5.10;;;16.80;83.70;;;;;;4844685;29;20189;-61
2022/07/06 04:44:09;;;;;;;6.17;5.43;;;16.80;83.50;;;;;;4856092;29;20188;-61
2022/07/06 04:46:35;;;;;;;6.10;5.20;;;16.80;83.80;;;;;;4860000;29;20267;-61
2022/07/06 04:49:00;;;;;;;7.93;6.07;;;16.80;83.80;;;;;;4881397;29;20184;-59
2022/07/06 04:51:26;;;;;;;6.97;5.10;;;16.80;83.90;;;;;;4854682;29;20193;-59
2022/07/06 04:53:52;;;;;;;5.63;5.07;;;16.70;83.40;;;;;;4873280;29;20187;-60
2022/07/06 04:56:17;;;;;;;7.07;5.47;;;16.70;84.30;;;;;;4849583;29;20195;-60
2022/07/06 04:58:43;;;;;;;5.47;4.97;;;16.70;83.60;;;;;;4865204;29;20236;-60
2022/07/06 05:01:08;;;;;;;7.20;5.67;;;16.70;83.70;;;;;;4861938;29;20217;-59
2022/07/06 05:03:40;;;;;;;7.63;5.63;;;16.70;83.30;;;;;;4844776;29;20187;-62
2022/07/06 05:06:06;;;;;;;6.43;5.00;;;16.70;83.50;;;;;;4862729;29;20189;-62
2022/07/06 05:08:32;;;;;;;6.43;4.60;;;16.70;83.50;;;;;;4879074;29;20191;-62
2022/07/06 05:10:58;;;;;;;8.47;5.60;;;16.70;83.90;;;;;;4865054;29;20188;-62
2022/07/06 05:13:23;;;;;;;5.47;5.07;;;16.70;83.40;;;;;;4863930;29;20263;-61
2022/07/06 05:15:49;;;;;;;8.80;5.83;;;16.80;83.70;;;;;;4857661;29;20228;-61
2022/07/06 05:18:15;;;;;;;6.63;5.40;;;16.80;83.90;;;;;;4863045;29;20201;-61
2022/07/06 05:20:41;;;;;;;7.90;5.87;;;16.80;83.10;;;;;;4841724;29;20254;-63
2022/07/06 05:23:06;;;;;;;6.33;5.40;;;16.80;83.30;;;;;;4872613;29;20208;-61
2022/07/06 05:25:32;;;;;;;6.27;5.20;;;16.80;83.40;;;;;;4837356;29;20286;-60
2022/07/06 05:27:59;;;;;;;8.87;5.33;;;16.80;83.30;;;;;;4852697;29;20295;-61
2022/07/06 05:30:25;;;;;;;5.40;4.90;;;16.80;83.50;;;;;;4880471;29;20192;-61
2022/07/06 05:32:51;;;;;;;5.63;5.13;;;16.80;83.20;;;;;;4849531;29;20211;-61
2022/07/06 05:35:17;;;;;;;6.63;5.20;;;16.80;83.20;;;;;;4864316;29;20211;-61
2022/07/06 05:37:43;;;;;;;5.50;5.00;;;16.80;83.30;;;;;;4860714;29;20231;-61
2022/07/06 05:40:11;;;;;;;5.67;5.17;;;16.80;83.30;;;;;;4876372;29;20215;-61
2022/07/06 05:42:36;;;;;;;6.60;4.70;;;16.80;83.30;;;;;;4859293;29;20336;-61
2022/07/06 05:45:04;;;;;;;5.70;4.40;;;16.90;83.10;;;;;;4845436;29;20227;-61
2022/07/06 05:50:14;;;;;;;7.77;5.23;;;17.00;83.20;;;;;;4869663;29;20203;-61
2022/07/06 05:52:42;;;;;;;8.53;5.60;;;17.00;83.10;;;;;;4864899;29;20201;-61
2022/07/06 05:55:12;;;;;;;5.97;4.97;;;17.00;83.10;;;;;;4859652;29;20241;-61
2022/07/06 05:57:40;;;;;;;6.87;4.80;;;17.10;83.30;;;;;;4872711;29;20195;-62
2022/07/06 06:00:07;;;;;;;5.60;4.83;;;17.10;83.40;;;;;;4860483;29;20193;-61
2022/07/06 06:02:40;;;;;;;5.70;4.67;;;17.20;83.30;;;;;;4875100;29;20184;-61
2022/07/06 06:05:07;;;;;;;6.53;4.53;;;17.30;83.20;;;;;;4865364;29;20199;-61
2022/07/06 06:07:35;;;;;;;5.60;5.07;;;17.20;83.10;;;;;;4861985;29;20236;-62
2022/07/06 06:10:05;;;;;;;5.13;4.63;;;17.30;83.60;;;;;;4859747;29;20189;-62
2022/07/06 06:12:31;;;;;;;5.93;4.47;;;17.30;82.90;;;;;;4856119;29;20200;-62
2022/07/06 06:14:56;;;;;;;5.63;5.13;;;17.30;83.40;;;;;;4861063;29;20219;-62
2022/07/06 06:17:22;;;;;;;6.67;5.17;;;17.40;83.50;;;;;;4868878;29;20195;-62
2022/07/06 06:19:48;;;;;;;7.00;4.50;;;17.40;83.80;;;;;;4849575;29;20192;-62
2022/07/06 06:22:14;;;;;;;7.10;5.30;;;17.50;83.70;;;;;;4859218;29;20184;-62
2022/07/06 06:24:40;;;;;;;5.67;5.17;;;17.50;83.80;;;;;;4877832;29;20184;-61
2022/07/06 06:27:06;;;;;;;7.00;5.63;;;17.60;84.00;;;;;;4861352;29;20196;-62
2022/07/06 06:29:32;;;;;;;9.27;6.93;;;17.60;84.20;;;;;;4847453;29;20208;-61
2022/07/06 06:31:58;;;;;;;7.53;6.63;;;17.60;84.20;;;;;;4884243;29;20198;-62
2022/07/06 06:34:24;;;;;;;7.23;5.43;;;17.70;84.30;;;;;;4847867;29;20223;-62
2022/07/06 06:36:49;;;;;;;6.63;5.00;;;17.70;83.90;;;;;;4864394;29;20192;-60
2022/07/06 06:39:15;;;;;;;7.13;5.70;;;17.70;84.10;;;;;;4863094;29;20196;-60
2022/07/06 06:41:40;;;;;;;8.53;5.47;;;17.80;83.90;;;;;;4863722;29;20279;-60
2022/07/06 06:44:06;;;;;;;5.77;5.00;;;17.80;84.00;;;;;;4845617;29;20205;-60
2022/07/06 06:46:32;;;;;;;5.37;4.87;;;17.80;83.40;;;;;;4849953;29;20199;-61
2022/07/06 06:48:57;;;;;;;5.53;4.97;;;17.90;83.60;;;;;;4841404;29;20195;-61
2022/07/06 06:51:23;;;;;;;5.57;4.50;;;17.90;83.40;;;;;;4865766;29;20196;-61
2022/07/06 06:53:49;;;;;;;5.20;4.60;;;18.00;82.60;;;;;;4863929;29;20279;-61
2022/07/06 06:56:14;;;;;;;5.93;4.60;;;18.10;82.30;;;;;;4848528;29;20220;-60
2022/07/06 06:58:40;;;;;;;6.53;5.27;;;18.20;82.30;;;;;;4859444;29;20199;-61
2022/07/06 07:01:05;;;;;;;6.10;4.80;;;18.20;82.70;;;;;;4853605;29;20248;-62
2022/07/06 07:03:31;;;;;;;4.83;4.43;;;18.30;82.70;;;;;;4861577;29;20192;-62
2022/07/06 07:05:57;;;;;;;7.13;5.07;;;18.30;82.60;;;;;;4883134;29;20203;-63
2022/07/06 07:08:23;;;;;;;5.23;4.67;;;18.40;82.50;;;;;;4864250;29;20199;-62
2022/07/06 07:10:49;;;;;;;8.43;4.30;;;18.40;82.40;;;;;;4881759;29;20206;-62
2022/07/06 07:13:14;;;;;;;5.57;4.70;;;18.50;81.60;;;;;;4867105;29;20292;-62
2022/07/06 07:15:40;;;;;;;5.60;4.63;;;18.60;82.10;;;;;;4867264;29;20214;-62
2022/07/06 07:18:06;;;;;;;4.27;3.07;;;18.60;81.60;;;;;;4874124;29;20259;-63
2022/07/06 07:20:33;;;;;;;5.83;3.73;;;18.80;75.60;;;;;;4865429;29;20203;-63
2022/07/06 07:22:59;;;;;;;6.17;3.70;;;18.90;76.70;;;;;;4859354;29;20189;-62
2022/07/06 07:25:26;;;;;;;3.63;3.33;;;18.90;76.20;;;;;;4875450;29;20200;-62
2022/07/06 07:27:51;;;;;;;4.70;4.00;;;19.00;75.90;;;;;;4893017;29;20247;-62
2022/07/06 07:30:17;;;;;;;4.13;3.67;;;19.00;77.70;;;;;;4881481;29;20202;-62
2022/07/06 07:32:43;;;;;;;4.70;3.23;;;19.00;77.30;;;;;;4850601;29;20206;-62
2022/07/06 07:35:09;;;;;;;3.63;3.30;;;19.10;76.10;;;;;;4873602;29;20258;-62
2022/07/06 07:37:35;;;;;;;3.57;3.27;;;19.20;72.80;;;;;;4881102;29;20199;-62
2022/07/06 07:40:04;;;;;;;3.27;2.87;;;19.30;72.10;;;;;;4880725;29;20196;-62
2022/07/06 07:42:30;;;;;;;3.87;3.00;;;19.30;71.70;;;;;;4879514;29;20188;-62
2022/07/06 07:44:55;;;;;;;3.53;3.20;;;19.40;74.00;;;;;;4867913;29;20215;-62
2022/07/06 07:47:21;;;;;;;3.80;3.50;;;19.50;76.30;;;;;;4874999;29;20584;-62
2022/07/06 07:49:47;;;;;;;6.53;4.33;;;19.50;76.40;;;;;;4860487;29;20199;-62
2022/07/06 07:52:13;;;;;;;5.23;4.10;;;19.50;75.20;;;;;;4862723;29;20247;-62
2022/07/06 07:54:39;;;;;;;3.93;3.63;;;19.50;75.30;;;;;;4863190;29;20219;-62
2022/07/06 07:57:04;;;;;;;3.67;3.37;;;19.50;76.60;;;;;;4860797;29;20191;-62
2022/07/06 07:59:30;;;;;;;2.90;2.47;;;19.60;72.70;;;;;;4874748;29;20184;-62
2022/07/06 08:01:56;;;;;;;3.83;2.37;;;19.60;68.60;;;;;;4863589;29;20240;-62
2022/07/06 08:04:22;;;;;;;4.13;2.63;;;20.00;62.20;;;;;;4873099;29;20204;-62
2022/07/06 08:06:48;;;;;;;3.77;2.53;;;20.10;61.80;;;;;;4880490;29;20192;-62
2022/07/06 08:09:14;;;;;;;2.23;2.03;;;20.30;59.10;;;;;;4880486;29;20271;-62
2022/07/06 08:11:39;;;;;;;4.43;2.20;;;20.40;57.90;;;;;;4849864;29;20191;-62
2022/07/06 08:14:05;;;;;;;4.07;2.80;;;20.60;59.50;;;;;;4848636;29;20188;-62
2022/07/06 08:16:31;;;;;;;2.37;2.17;;;20.70;64.70;;;;;;4859119;29;20185;-62
2022/07/06 08:18:57;;;;;;;4.17;2.20;;;20.90;59.20;;;;;;4872922;29;20188;-62
2022/07/06 08:21:23;;;;;;;3.40;1.90;;;20.90;58.20;;;;;;4858584;29;20200;-62
2022/07/06 08:23:49;;;;;;;2.00;1.80;;;21.50;53.00;;;;;;4880216;29;20188;-62
2022/07/06 08:26:14;;;;;;;1.40;1.30;;;21.80;51.40;;;;;;4848515;29;20263;-62
2022/07/06 08:28:40;;;;;;;2.57;1.50;;;21.90;50.00;;;;;;4861044;29;20240;-62
2022/07/06 08:31:06;;;;;;;3.50;1.50;;;22.00;50.90;;;;;;4863429;29;20192;-62
2022/07/06 08:33:31;;;;;;;6.97;2.00;;;22.00;48.70;;;;;;4879426;29;20251;-62
2022/07/06 08:35:57;;;;;;;3.20;1.90;;;22.30;48.50;;;;;;4845050;29;20218;-66
2022/07/06 08:38:23;;;;;;;3.00;1.77;;;22.50;48.50;;;;;;4855943;29;20223;-67
2022/07/06 08:40:49;;;;;;;3.13;1.57;;;22.60;45.30;;;;;;4880905;29;20196;-67
2022/07/06 08:43:15;;;;;;;2.30;1.80;;;22.70;43.80;;;;;;4856889;29;20233;-66
2022/07/06 08:45:43;;;;;;;3.73;2.13;;;22.60;45.90;;;;;;4862942;29;20191;-66
2022/07/06 08:48:10;;;;;;;2.30;1.70;;;22.60;47.60;;;;;;4871811;29;20196;-66
2022/07/06 08:50:36;;;;;;;1.80;1.30;;;22.70;44.90;;;;;;4849475;29;20244;-62
2022/07/06 08:53:02;;;;;;;1.53;1.43;;;22.70;43.70;;;;;;4897608;29;20518;-62
2022/07/06 08:55:28;;;;;;;3.27;1.40;;;22.70;47.50;;;;;;4880665;29;20286;-68
2022/07/06 08:57:57;;;;;;;1.40;1.30;;;22.70;46.50;;;;;;4853690;29;20180;-62
2022/07/06 09:00:27;;;;;;;1.30;1.20;;;22.70;46.00;;;;;;4869556;29;20188;-62
2022/07/06 09:02:56;;;;;;;4.43;1.67;;;22.80;45.90;;;;;;4881023;29;20235;-62
2022/07/06 09:05:23;;;;;;;1.37;1.20;;;22.70;45.40;;;;;;4898131;29;20195;-62
2022/07/06 09:07:50;;;;;;;1.93;1.70;;;22.80;44.50;;;;;;4880456;29;20191;-62
2022/07/06 09:10:24;;;;;;;2.20;1.40;;;22.90;45.90;;;;;;4861662;29;20224;-62
2022/07/06 09:12:50;;;;;;;1.90;1.43;;;22.90;44.60;;;;;;4875442;29;20188;-61
2022/07/06 09:15:16;;;;;;;4.30;1.80;;;23.00;47.90;;;;;;4871346;29;20210;-62
2022/07/06 09:17:43;;;;;;;2.00;1.60;;;23.00;45.70;;;;;;4881413;29;20361;-62
2022/07/06 09:20:12;;;;;;;2.40;1.47;;;23.00;46.20;;;;;;4874159;29;20192;-62
2022/07/06 09:22:39;;;;;;;3.00;1.70;;;22.90;43.60;;;;;;4881269;29;20199;-62
2022/07/06 09:25:13;;;;;;;3.57;1.73;;;22.90;47.40;;;;;;4875024;29;20193;-62
2022/07/06 09:27:41;;;;;;;3.63;1.77;;;23.10;45.10;;;;;;4882824;29;20246;-62
2022/07/06 09:30:08;;;;;;;2.63;1.50;;;23.10;48.80;;;;;;4866499;29;20188;-65
2022/07/06 09:32:43;;;;;;;1.67;1.37;;;23.10;50.30;;;;;;4877570;29;20183;-61
2022/07/06 09:35:35;;;;;;;1.73;1.53;;;23.20;46.00;;;;;;4876827;29;20239;-63
2022/07/06 09:38:08;;;;;;;2.67;1.40;;;23.30;44.30;;;;;;4889528;29;20252;-64
2022/07/06 09:40:36;;;;;;;2.13;1.50;;;23.30;46.60;;;;;;4894262;29;20191;-64
2022/07/06 09:43:19;;;;;;;1.50;1.40;;;23.30;45.80;;;;;;4862730;29;20219;-63
2022/07/06 09:45:49;;;;;;;2.20;1.63;;;23.50;42.80;;;;;;4851208;29;20203;-63
2022/07/06 09:48:21;;;;;;;1.87;1.50;;;23.30;43.40;;;;;;4869367;29;20188;-63
2022/07/06 09:50:52;;;;;;;1.40;1.30;;;23.40;42.00;;;;;;4873135;29;20188;-64
2022/07/06 09:53:19;;;;;;;3.27;1.57;;;23.70;42.80;;;;;;4884513;29;20204;-68
2022/07/06 09:55:47;;;;;;;4.20;1.80;;;23.70;45.40;;;;;;4901118;29;20203;-68
2022/07/06 09:58:13;;;;;;;1.20;1.10;;;23.70;45.80;;;;;;4868945;29;20239;-62
2022/07/06 10:00:39;;;;;;;3.53;1.60;;;23.60;44.40;;;;;;4883038;29;20208;-64
2022/07/06 10:03:06;;;;;;;2.33;1.40;;;23.50;47.60;;;;;;4850441;29;20213;-64
2022/07/06 10:05:34;;;;;;;1.60;1.20;;;23.50;48.40;;;;;;4878380;29;20260;-62
2022/07/06 10:08:00;;;;;;;3.03;1.40;;;23.70;44.30;;;;;;4884271;29;20222;-63
2022/07/06 10:10:27;;;;;;;4.03;1.30;;;23.80;46.60;;;;;;4900972;29;20199;-62
2022/07/06 10:12:58;;;;;;;1.93;1.60;;;23.90;40.70;;;;;;4884206;29;20218;-62
2022/07/06 10:15:26;;;;;;;2.60;1.13;;;23.90;42.00;;;;;;4884044;29;20232;-63
2022/07/06 10:17:52;;;;;;;1.20;1.10;;;23.80;41.30;;;;;;4868375;29;20199;-64
2022/07/06 10:20:19;;;;;;;1.93;1.33;;;24.00;38.80;;;;;;4868829;29;20188;-64
2022/07/06 10:22:46;;;;;;;2.13;1.10;;;24.00;42.50;;;;;;4868713;29;20183;-62
2022/07/06 10:25:15;;;;;;;1.43;1.30;;;24.10;40.80;;;;;;4868645;29;20192;-62
2022/07/06 10:27:42;;;;;;;1.73;1.10;;;24.20;42.50;;;;;;4860022;29;20250;-62
2022/07/06 10:30:08;;;;;;;1.47;1.37;;;24.20;39.90;;;;;;4880222;29;20271;-62
2022/07/06 10:32:35;;;;;;;1.50;1.20;;;24.30;40.80;;;;;;4859555;29;20202;-60
2022/07/06 10:35:01;;;;;;;1.43;1.33;;;24.30;40.80;;;;;;4865538;29;20250;-59
2022/07/06 10:37:28;;;;;;;3.20;1.10;;;24.30;42.50;;;;;;4882266;29;20227;-62
2022/07/06 10:42:49;;;;;;;1.40;1.10;;;24.40;38.50;;;;;;4895021;29;20256;-61
2022/07/06 10:45:21;;;;;;;1.93;1.10;;;24.50;37.90;;;;;;4884042;29;20198;-62
2022/07/06 10:47:47;;;;;;;1.03;1.00;;;24.70;38.70;;;;;;4871383;29;20200;-62
2022/07/06 10:50:13;;;;;;;2.17;1.40;;;24.60;37.30;;;;;;4853773;29;20208;-61
2022/07/06 10:52:58;;;;;;;1.30;1.20;;;24.50;40.70;;;;;;4848483;29;20193;-61
2022/07/06 10:55:36;;;;;;;1.33;1.23;;;24.70;40.40;;;;;;4866407;29;20223;-61
2022/07/06 10:58:03;;;;;;;1.83;1.30;;;24.60;42.90;;;;;;4867539;29;20235;-61
2022/07/06 11:00:54;;;;;;;1.40;0.93;;;24.60;46.70;;;;;;4881794;29;20217;-60
2022/07/06 11:03:42;;;;;;;1.50;1.40;;;24.80;46.70;;;;;;4861943;29;20187;-60
2022/07/06 11:06:08;;;;;;;2.97;1.53;;;24.80;46.90;;;;;;4870887;29;20260;-60
2022/07/06 11:08:51;;;;;;;2.20;2.00;;;24.90;46.00;;;;;;4882556;29;20259;-60
2022/07/06 11:11:20;;;;;;;1.17;1.07;;;24.90;46.20;;;;;;4883266;29;20188;-62
2022/07/06 11:13:49;;;;;;;1.10;1.00;;;25.00;37.30;;;;;;4878331;29;20226;-59
2022/07/06 11:16:16;;;;;;;2.37;1.07;;;25.00;36.50;;;;;;4898434;29;20294;-61
2022/07/06 11:18:48;;;;;;;1.87;1.37;;;25.10;39.70;;;;;;4881333;29;20194;-59
2022/07/06 11:21:22;;;;;;;2.07;1.03;;;25.20;39.20;;;;;;4877187;29;20188;-59
2022/07/06 11:23:49;;;;;;;3.20;1.70;;;25.20;37.40;;;;;;4890366;29;20191;-60
2022/07/06 11:26:16;;;;;;;1.93;1.30;;;25.30;38.70;;;;;;4864430;29;20196;-61
2022/07/06 11:28:44;;;;;;;2.37;1.20;;;25.20;43.50;;;;;;4885445;29;20231;-59
2022/07/06 11:31:10;;;;;;;1.83;1.30;;;25.20;41.50;;;;;;4883588;29;20194;-60
2022/07/06 11:33:36;;;;;;;2.30;1.50;;;25.40;36.90;;;;;;4858330;29;20206;-60
2022/07/06 11:36:14;;;;;;;1.30;1.20;;;25.50;39.50;;;;;;4849339;29;20208;-58
2022/07/06 11:38:40;;;;;;;1.40;1.20;;;25.70;36.70;;;;;;4881343;29;20565;-60
2022/07/06 11:41:06;;;;;;;1.13;1.03;;;25.80;36.20;;;;;;4881725;29;20247;-60
2022/07/06 11:43:32;;;;;;;2.67;1.33;;;25.90;35.20;;;;;;4845690;29;20192;-59
2022/07/06 11:45:58;;;;;;;1.70;1.00;;;26.00;35.00;;;;;;4872213;29;20219;-60
2022/07/06 11:48:23;;;;;;;1.03;0.93;;;26.00;34.50;;;;;;4865813;29;20291;-59
2022/07/06 11:51:03;;;;;;;1.27;1.10;;;26.10;33.80;;;;;;4863071;29;20197;-59
2022/07/06 11:53:29;;;;;;;2.13;1.03;;;26.20;33.90;;;;;;4868930;29;20188;-59
2022/07/06 11:55:55;;;;;;;3.30;1.27;;;26.30;33.20;;;;;;4881112;29;20214;-60
2022/07/06 11:58:23;;;;;;;1.67;1.10;;;26.40;33.80;;;;;;4880701;29;20184;-61
2022/07/06 12:01:11;;;;;;;1.47;1.10;;;26.50;34.10;;;;;;4879385;29;20201;-61
2022/07/06 12:03:37;;;;;;;0.90;0.80;;;26.80;36.70;;;;;;4868451;29;20199;-60
2022/07/06 12:06:04;;;;;;;3.53;1.60;;;27.10;35.40;;;;;;4851725;29;20188;-60
2022/07/06 12:08:30;;;;;;;1.30;1.00;;;27.30;39.80;;;;;;4882205;29;20223;-61
2022/07/06 12:10:56;;;;;;;1.67;1.10;;;27.90;33.30;;;;;;4854711;29;20220;-60
2022/07/06 12:13:23;;;;;;;1.87;1.07;;;28.30;32.40;;;;;;4882357;29;20196;-61
2022/07/06 12:15:49;;;;;;;1.20;1.10;;;28.80;32.40;;;;;;4864939;29;20246;-60
2022/07/06 12:18:14;;;;;;;1.60;1.20;;;29.30;35.40;;;;;;4850352;29;20211;-62
2022/07/06 12:20:40;;;;;;;1.43;1.03;;;30.00;31.40;;;;;;4842534;29;20200;-60
2022/07/06 12:23:07;;;;;;;1.83;1.00;;;30.60;30.40;;;;;;4845970;29;20195;-58
2022/07/06 12:25:35;;;;;;;2.33;1.30;;;31.10;32.00;;;;;;4863338;29;20204;-60
2022/07/06 12:28:01;;;;;;;3.40;1.20;;;31.60;28.70;;;;;;4867716;29;20243;-60
2022/07/06 12:30:27;;;;;;;1.17;1.00;;;31.70;26.40;;;;;;4854722;29;20200;-60
2022/07/06 12:33:15;;;;;;;0.80;0.80;;;32.10;26.30;;;;;;4867075;29;20205;-63
2022/07/06 12:35:45;;;;;;;4.37;1.40;;;32.80;24.70;;;;;;4880911;29;20221;-59
2022/07/06 12:38:10;;;;;;;1.57;1.03;;;33.50;27.70;;;;;;4880253;29;20199;-59
2022/07/06 12:40:37;;;;;;;3.27;1.10;;;34.20;27.90;;;;;;4880809;29;20192;-60
2022/07/06 12:43:04;;;;;;;2.50;1.00;;;34.50;24.40;;;;;;4865128;29;20210;-61
2022/07/06 12:45:31;;;;;;;2.73;0.90;;;34.80;26.20;;;;;;4865982;29;20200;-62
2022/07/06 12:48:01;;;;;;;1.17;0.80;;;35.00;24.90;;;;;;4864993;29;20287;-61
2022/07/06 12:50:36;;;;;;;1.47;0.93;;;35.10;25.30;;;;;;4880315;29;20208;-61
2022/07/06 12:53:03;;;;;;;1.57;0.93;;;35.20;25.60;;;;;;4857705;29;20241;-63